Time;durP1;ratioP1;P1;durP2;ratioP2;P2;SDS_P1;SDS_P2;PMS_P1;PMS_P2;Temp;Humidity;BMP_temperature;BMP_pressure;BME280_temperature;BME280_humidity;BME280_pressure;Samples;Min_cycle;Max_cycle;Signal;HPM_P1;HPM_P2
2023/08/30 00:02:13;;;;;;;12.40;6.93;;;;;;;;;;5018682;27;94586;-60
2023/08/30 00:04:41;;;;;;;8.25;7.03;;;;;;;;;;5019909;27;92643;-60
2023/08/30 00:07:08;;;;;;;9.10;7.00;;;;;;;;;;5023568;27;95138;-60
2023/08/30 00:09:35;;;;;;;10.18;7.35;;;;;;;;;;5019416;27;92507;-60
2023/08/30 00:12:03;;;;;;;9.73;6.68;;;;;;;;;;5019568;27;93284;-60
2023/08/30 00:14:29;;;;;;;9.40;6.57;;;;;;;;;;5018542;27;93401;-60
2023/08/30 00:16:56;;;;;;;11.43;6.93;;;;;;;;;;5025054;27;92544;-59
2023/08/30 00:19:23;;;;;;;10.05;6.80;;;;;;;;;;5019087;27;92929;-60
2023/08/30 00:21:49;;;;;;;9.95;7.45;;;;;;;;;;5018987;27;93446;-61
2023/08/30 00:24:16;;;;;;;8.32;6.63;;;;;;;;;;5020138;27;91809;-61
2023/08/30 00:26:42;;;;;;;11.13;7.10;;;;;;;;;;5019132;27;92520;-60
2023/08/30 00:29:08;;;;;;;12.15;7.85;;;;;;;;;;5021510;27;93841;-61
2023/08/30 00:31:34;;;;;;;13.75;7.47;;;;;;;;;;5017627;27;94994;-60
2023/08/30 00:34:01;;;;;;;11.43;7.13;;;;;;;;;;5027347;27;94738;-60
2023/08/30 00:36:27;;;;;;;10.38;7.70;;;;;;;;;;5019225;27;92548;-61
2023/08/30 00:38:54;;;;;;;9.98;7.75;;;;;;;;;;5018872;27;93641;-60
2023/08/30 00:41:20;;;;;;;9.32;7.18;;;;;;;;;;5020050;27;93434;-60
2023/08/30 00:43:46;;;;;;;9.85;7.00;;;;;;;;;;5025277;27;92374;-60
2023/08/30 00:46:13;;;;;;;10.90;7.50;;;;;;;;;;5021112;27;93101;-60
2023/08/30 00:48:40;;;;;;;13.43;7.45;;;;;;;;;;5021995;27;93541;-60
2023/08/30 00:51:07;;;;;;;10.68;7.65;;;;;;;;;;5021548;27;92834;-60
2023/08/30 00:53:33;;;;;;;10.15;7.53;;;;;;;;;;5023035;27;93360;-60
2023/08/30 00:55:59;;;;;;;10.95;7.40;;;;;;;;;;5020566;27;94952;-60
2023/08/30 00:58:28;;;;;;;9.32;6.82;;;;;;;;;;5016695;27;95505;-60
2023/08/30 01:00:55;;;;;;;10.43;7.13;;;;;;;;;;5015096;27;93401;-60
2023/08/30 01:03:22;;;;;;;9.48;7.18;;;;;;;;;;5014588;27;92355;-60
2023/08/30 01:05:48;;;;;;;11.48;6.55;;;;;;;;;;5027493;27;94299;-60
2023/08/30 01:08:15;;;;;;;8.98;7.18;;;;;;;;;;5014882;27;94097;-60
2023/08/30 01:10:48;;;;;;;12.43;6.45;;;;;;;;;;5018871;27;92761;-61
2023/08/30 01:13:18;;;;;;;12.20;6.93;;;;;;;;;;5018204;27;93080;-60
2023/08/30 01:15:46;;;;;;;9.18;6.88;;;;;;;;;;5015039;27;92551;-60
2023/08/30 01:18:12;;;;;;;9.60;6.85;;;;;;;;;;5017250;27;93143;-60
2023/08/30 01:20:40;;;;;;;13.65;7.30;;;;;;;;;;5016447;27;95789;-60
2023/08/30 01:23:22;;;;;;;10.10;6.88;;;;;;;;;;5014772;27;92682;-60
2023/08/30 01:26:03;;;;;;;10.30;6.50;;;;;;;;;;5033620;27;93144;-60
2023/08/30 01:28:31;;;;;;;12.50;7.30;;;;;;;;;;5015081;27;93412;-60
2023/08/30 01:30:58;;;;;;;10.95;7.03;;;;;;;;;;5014351;27;92686;-60
2023/08/30 01:33:27;;;;;;;9.68;6.93;;;;;;;;;;5017550;27;93070;-61
2023/08/30 01:35:55;;;;;;;12.93;6.75;;;;;;;;;;5020553;27;95695;-60
2023/08/30 01:38:22;;;;;;;8.20;6.80;;;;;;;;;;5016985;27;93084;-60
2023/08/30 01:40:49;;;;;;;8.93;6.78;;;;;;;;;;5014051;28;95630;-60
2023/08/30 01:43:16;;;;;;;10.13;6.75;;;;;;;;;;5014759;27;92565;-60
2023/08/30 01:45:43;;;;;;;11.27;7.35;;;;;;;;;;5012519;27;95389;-60
2023/08/30 01:48:11;;;;;;;10.57;7.35;;;;;;;;;;5017758;27;93680;-60
2023/08/30 01:50:39;;;;;;;13.88;7.38;;;;;;;;;;5014912;27;92729;-60
2023/08/30 01:53:07;;;;;;;13.40;7.18;;;;;;;;;;5015202;27;93128;-60
2023/08/30 01:55:33;;;;;;;9.60;7.18;;;;;;;;;;5017427;27;94741;-59
2023/08/30 01:58:02;;;;;;;10.00;6.90;;;;;;;;;;5014329;27;93143;-59
2023/08/30 02:00:28;;;;;;;15.02;7.72;;;;;;;;;;5011905;27;92599;-60
2023/08/30 02:02:56;;;;;;;8.13;6.72;;;;;;;;;;5014902;27;91895;-60
2023/08/30 02:05:22;;;;;;;14.38;7.57;;;;;;;;;;5019349;27;93510;-60
2023/08/30 02:07:58;;;;;;;10.13;7.43;;;;;;;;;;5016000;27;94633;-60
2023/08/30 02:10:39;;;;;;;11.90;7.72;;;;;;;;;;5010724;27;94858;-60
2023/08/30 02:13:05;;;;;;;11.88;7.85;;;;;;;;;;5030915;27;95527;-60
2023/08/30 02:15:33;;;;;;;10.18;6.90;;;;;;;;;;5014872;27;94381;-62
2023/08/30 02:18:00;;;;;;;9.15;7.28;;;;;;;;;;5018888;27;92437;-59
2023/08/30 02:20:26;;;;;;;11.80;8.57;;;;;;;;;;5014396;27;93653;-60
2023/08/30 02:22:54;;;;;;;11.23;7.60;;;;;;;;;;5013577;27;92456;-60
2023/08/30 02:25:23;;;;;;;10.23;8.75;;;;;;;;;;5022196;27;93322;-60
2023/08/30 02:27:50;;;;;;;12.07;8.75;;;;;;;;;;5016878;27;93701;-60
2023/08/30 02:30:16;;;;;;;12.50;8.82;;;;;;;;;;5014594;27;92553;-59
2023/08/30 02:32:43;;;;;;;12.88;9.15;;;;;;;;;;5013867;27;93128;-60
2023/08/30 02:35:09;;;;;;;13.43;9.13;;;;;;;;;;5011974;27;95774;-60
2023/08/30 02:37:36;;;;;;;12.95;8.50;;;;;;;;;;5013330;27;92621;-60
2023/08/30 02:40:03;;;;;;;11.25;8.65;;;;;;;;;;5016748;27;93189;-60
2023/08/30 02:42:29;;;;;;;17.05;9.13;;;;;;;;;;5017513;27;92601;-60
2023/08/30 02:44:56;;;;;;;14.02;8.95;;;;;;;;;;5013653;27;93218;-60
2023/08/30 02:47:22;;;;;;;16.42;9.57;;;;;;;;;;5015282;27;93385;-60
2023/08/30 02:49:48;;;;;;;13.23;9.25;;;;;;;;;;5021978;27;92805;-60
2023/08/30 02:52:15;;;;;;;12.82;9.60;;;;;;;;;;5017859;27;93109;-60
2023/08/30 02:54:41;;;;;;;13.95;9.48;;;;;;;;;;5013193;27;93804;-60
2023/08/30 02:57:08;;;;;;;14.60;9.63;;;;;;;;;;5013530;27;92471;-60
2023/08/30 02:59:34;;;;;;;13.93;9.57;;;;;;;;;;5012508;27;94848;-60
2023/08/30 03:02:00;;;;;;;15.00;9.68;;;;;;;;;;5015921;27;93470;-60
2023/08/30 03:04:27;;;;;;;17.65;10.02;;;;;;;;;;5012872;27;94875;-60
2023/08/30 03:06:53;;;;;;;16.48;9.68;;;;;;;;;;5012745;27;93539;-60
2023/08/30 03:09:20;;;;;;;14.70;9.80;;;;;;;;;;5013226;27;92617;-60
2023/08/30 03:11:46;;;;;;;16.25;10.25;;;;;;;;;;5012723;27;93068;-60
2023/08/30 03:14:13;;;;;;;16.80;9.77;;;;;;;;;;5011994;27;94567;-60
2023/08/30 03:16:39;;;;;;;13.02;10.18;;;;;;;;;;5018016;27;91725;-60
2023/08/30 03:19:06;;;;;;;14.70;9.57;;;;;;;;;;5012221;27;92930;-60
2023/08/30 03:21:32;;;;;;;18.40;10.65;;;;;;;;;;5012028;27;93449;-60
2023/08/30 03:23:59;;;;;;;21.65;9.95;;;;;;;;;;5016522;27;94960;-60
2023/08/30 03:26:25;;;;;;;15.20;10.20;;;;;;;;;;5014702;27;93372;-61
2023/08/30 03:28:51;;;;;;;17.88;10.02;;;;;;;;;;5016850;27;92643;-61
2023/08/30 03:31:19;;;;;;;14.90;9.52;;;;;;;;;;5011813;27;95928;-61
2023/08/30 03:33:46;;;;;;;13.10;9.63;;;;;;;;;;5013074;27;94598;-61
2023/08/30 03:36:13;;;;;;;14.60;9.63;;;;;;;;;;5013174;27;92559;-61
2023/08/30 03:38:40;;;;;;;14.10;9.70;;;;;;;;;;5013116;27;93920;-61
2023/08/30 03:41:07;;;;;;;16.98;10.43;;;;;;;;;;5013170;27;92979;-61
2023/08/30 03:43:33;;;;;;;18.63;10.65;;;;;;;;;;5014229;27;92437;-61
2023/08/30 03:46:00;;;;;;;16.13;10.00;;;;;;;;;;5012655;27;93386;-61
2023/08/30 03:48:27;;;;;;;15.70;10.05;;;;;;;;;;5016406;27;94782;-61
2023/08/30 03:50:54;;;;;;;19.92;10.85;;;;;;;;;;5011383;27;97261;-60
2023/08/30 03:53:20;;;;;;;16.02;10.65;;;;;;;;;;5011715;27;93918;-60
2023/08/30 03:55:47;;;;;;;15.73;10.02;;;;;;;;;;5015998;27;92765;-61
2023/08/30 03:58:13;;;;;;;15.52;10.80;;;;;;;;;;5011554;27;92934;-60
2023/08/30 04:00:40;;;;;;;15.02;10.70;;;;;;;;;;5010883;27;93392;-61
2023/08/30 04:03:08;;;;;;;15.18;9.93;;;;;;;;;;5012162;27;92574;-61
2023/08/30 04:05:35;;;;;;;18.23;9.98;;;;;;;;;;5031947;27;93881;-61
2023/08/30 04:08:03;;;;;;;16.95;10.40;;;;;;;;;;5012073;27;92357;-61
2023/08/30 04:10:29;;;;;;;12.95;9.98;;;;;;;;;;5011397;27;93369;-61
2023/08/30 04:12:56;;;;;;;19.23;10.32;;;;;;;;;;5010394;27;96831;-61
2023/08/30 04:15:22;;;;;;;17.83;10.68;;;;;;;;;;5015874;27;92760;-61
2023/08/30 04:17:48;;;;;;;13.70;9.85;;;;;;;;;;5014263;27;93355;-60
2023/08/30 04:20:15;;;;;;;13.88;10.07;;;;;;;;;;5019458;27;93760;-61
2023/08/30 04:22:41;;;;;;;12.32;9.32;;;;;;;;;;5011924;27;92465;-61
2023/08/30 04:25:09;;;;;;;15.07;9.45;;;;;;;;;;5012537;27;93188;-61
2023/08/30 04:27:35;;;;;;;13.48;9.98;;;;;;;;;;5018742;27;92395;-60
2023/08/30 04:30:02;;;;;;;12.13;8.95;;;;;;;;;;5012269;27;93227;-60
2023/08/30 04:32:29;;;;;;;14.43;9.65;;;;;;;;;;5012246;27;93552;-61
2023/08/30 04:34:55;;;;;;;16.80;9.45;;;;;;;;;;5018109;27;92557;-61
2023/08/30 04:37:21;;;;;;;13.50;8.90;;;;;;;;;;5014199;27;94822;-61
2023/08/30 04:39:48;;;;;;;15.40;10.00;;;;;;;;;;5015277;27;93426;-61
2023/08/30 04:42:15;;;;;;;20.42;9.57;;;;;;;;;;5014296;27;92484;-61
2023/08/30 04:44:41;;;;;;;13.48;9.13;;;;;;;;;;5014985;27;93250;-61
2023/08/30 04:47:08;;;;;;;11.75;8.35;;;;;;;;;;5018751;27;95997;-61
2023/08/30 04:49:34;;;;;;;14.23;9.48;;;;;;;;;;5027234;27;92526;-60
2023/08/30 04:52:01;;;;;;;13.30;8.82;;;;;;;;;;5014760;27;93690;-61
2023/08/30 04:54:27;;;;;;;15.80;9.73;;;;;;;;;;5019739;27;91752;-61
2023/08/30 04:56:53;;;;;;;14.82;9.45;;;;;;;;;;5015643;27;93503;-61
2023/08/30 04:59:24;;;;;;;15.18;9.65;;;;;;;;;;5014970;27;92388;-61
2023/08/30 05:01:51;;;;;;;13.43;9.25;;;;;;;;;;5017682;27;94789;-61
2023/08/30 05:04:18;;;;;;;11.98;9.40;;;;;;;;;;5019010;28;95759;-61
2023/08/30 05:06:44;;;;;;;14.43;10.43;;;;;;;;;;5016098;27;93374;-61
2023/08/30 05:09:10;;;;;;;15.07;9.73;;;;;;;;;;5017575;27;92542;-61
2023/08/30 05:11:37;;;;;;;16.27;10.38;;;;;;;;;;5018391;27;93442;-61
2023/08/30 05:14:03;;;;;;;16.33;9.30;;;;;;;;;;5017800;28;95937;-60
2023/08/30 05:16:29;;;;;;;13.07;9.55;;;;;;;;;;5018397;27;93594;-61
2023/08/30 05:18:56;;;;;;;17.55;9.82;;;;;;;;;;5015286;27;93734;-60
2023/08/30 05:21:22;;;;;;;15.45;9.82;;;;;;;;;;5014388;27;92441;-60
2023/08/30 05:23:48;;;;;;;20.58;10.73;;;;;;;;;;5014832;27;95150;-60
2023/08/30 05:26:16;;;;;;;14.48;10.00;;;;;;;;;;5012688;27;95814;-61
2023/08/30 05:28:43;;;;;;;15.73;10.70;;;;;;;;;;5014153;27;92580;-60
2023/08/30 05:31:09;;;;;;;15.55;9.48;;;;;;;;;;5014749;27;94322;-61
2023/08/30 05:33:35;;;;;;;25.40;10.40;;;;;;;;;;5017515;27;93736;-61
2023/08/30 05:36:02;;;;;;;14.18;9.95;;;;;;;;;;5013698;27;93187;-61
2023/08/30 05:38:28;;;;;;;18.95;10.63;;;;;;;;;;5013617;27;93382;-60
2023/08/30 05:40:55;;;;;;;19.65;11.15;;;;;;;;;;5014848;27;92510;-61
2023/08/30 05:43:22;;;;;;;15.23;10.23;;;;;;;;;;5016990;27;93143;-60
2023/08/30 05:45:48;;;;;;;18.13;10.88;;;;;;;;;;5013304;27;93469;-61
2023/08/30 05:48:15;;;;;;;14.57;10.43;;;;;;;;;;5023366;27;92371;-60
2023/08/30 05:50:41;;;;;;;19.40;10.95;;;;;;;;;;5016498;27;94819;-60
2023/08/30 05:53:08;;;;;;;17.33;10.82;;;;;;;;;;5016156;27;93024;-60
2023/08/30 05:55:34;;;;;;;15.38;10.60;;;;;;;;;;5013405;27;93164;-60
2023/08/30 05:58:00;;;;;;;14.85;10.98;;;;;;;;;;5013502;27;93410;-60
2023/08/30 06:00:27;;;;;;;19.55;10.48;;;;;;;;;;5017064;27;92856;-60
2023/08/30 06:02:53;;;;;;;22.02;11.02;;;;;;;;;;5020522;27;93099;-60
2023/08/30 06:05:20;;;;;;;14.73;10.63;;;;;;;;;;5017144;27;93479;-61
2023/08/30 06:07:46;;;;;;;18.35;10.95;;;;;;;;;;5014410;27;91815;-61
2023/08/30 06:10:13;;;;;;;16.20;11.15;;;;;;;;;;5013489;27;92681;-60
2023/08/30 06:12:39;;;;;;;15.25;11.05;;;;;;;;;;5012734;27;94661;-60
2023/08/30 06:15:06;;;;;;;17.27;10.57;;;;;;;;;;5026353;27;96160;-61
2023/08/30 06:17:32;;;;;;;17.45;10.55;;;;;;;;;;5018964;27;92564;-60
2023/08/30 06:19:59;;;;;;;14.88;10.65;;;;;;;;;;5012975;27;92509;-61
2023/08/30 06:22:25;;;;;;;17.80;10.38;;;;;;;;;;5012644;27;93986;-61
2023/08/30 06:24:52;;;;;;;16.92;10.55;;;;;;;;;;5013104;27;93424;-61
2023/08/30 06:27:18;;;;;;;16.38;10.40;;;;;;;;;;5013154;27;93091;-62
2023/08/30 06:29:45;;;;;;;16.10;9.93;;;;;;;;;;5016233;27;94134;-61
2023/08/30 06:32:11;;;;;;;15.25;10.90;;;;;;;;;;5014521;27;93656;-61
2023/08/30 06:34:37;;;;;;;14.15;10.15;;;;;;;;;;5013196;27;92468;-61
2023/08/30 06:37:04;;;;;;;20.88;10.50;;;;;;;;;;5016209;27;94201;-61
2023/08/30 06:39:34;;;;;;;13.63;10.52;;;;;;;;;;5010985;27;94907;-61
2023/08/30 06:42:01;;;;;;;15.88;11.13;;;;;;;;;;5012623;27;94252;-61
2023/08/30 06:44:28;;;;;;;19.27;11.77;;;;;;;;;;5013874;27;93416;-61
2023/08/30 06:46:55;;;;;;;17.70;11.43;;;;;;;;;;5019974;27;92448;-61
2023/08/30 06:49:21;;;;;;;22.02;11.45;;;;;;;;;;5017225;27;94251;-62
2023/08/30 06:51:48;;;;;;;17.63;10.70;;;;;;;;;;5013577;27;94320;-61
2023/08/30 06:54:14;;;;;;;14.40;10.20;;;;;;;;;;5012668;27;92571;-61
2023/08/30 06:56:40;;;;;;;24.00;11.52;;;;;;;;;;5012512;27;93283;-61
2023/08/30 06:59:07;;;;;;;19.20;10.85;;;;;;;;;;5015609;27;93697;-62
2023/08/30 07:01:33;;;;;;;16.10;10.77;;;;;;;;;;5017362;27;93174;-61
2023/08/30 07:04:02;;;;;;;16.08;10.65;;;;;;;;;;5010531;27;95792;-61
2023/08/30 07:06:30;;;;;;;15.57;10.10;;;;;;;;;;5018977;27;92638;-61
2023/08/30 07:08:57;;;;;;;17.05;10.63;;;;;;;;;;5017069;27;92948;-62
2023/08/30 07:11:23;;;;;;;14.73;10.27;;;;;;;;;;5024062;27;93368;-61
2023/08/30 07:14:00;;;;;;;25.25;11.80;;;;;;;;;;5012819;27;92748;-61
2023/08/30 07:16:26;;;;;;;24.77;11.43;;;;;;;;;;5016320;27;92560;-61
2023/08/30 07:18:52;;;;;;;22.02;12.43;;;;;;;;;;5012337;27;92823;-61
2023/08/30 07:21:19;;;;;;;14.40;10.60;;;;;;;;;;5019625;27;92856;-61
2023/08/30 07:23:45;;;;;;;18.83;10.98;;;;;;;;;;5017060;27;93440;-61
2023/08/30 07:26:11;;;;;;;17.73;10.75;;;;;;;;;;5012300;27;92542;-61
2023/08/30 07:28:38;;;;;;;17.35;9.73;;;;;;;;;;5010455;27;95221;-61
2023/08/30 07:31:05;;;;;;;15.15;10.02;;;;;;;;;;5029720;27;95383;-62
2023/08/30 07:33:31;;;;;;;20.52;10.27;;;;;;;;;;5017031;27;92766;-61
2023/08/30 07:35:58;;;;;;;16.42;10.60;;;;;;;;;;5012188;27;93244;-61
2023/08/30 07:38:24;;;;;;;18.05;10.35;;;;;;;;;;5011944;27;93409;-62
2023/08/30 07:40:51;;;;;;;14.02;10.40;;;;;;;;;;5016426;27;92745;-61
2023/08/30 07:43:17;;;;;;;20.63;10.10;;;;;;;;;;5013539;27;93177;-62
2023/08/30 07:45:44;;;;;;;14.00;10.15;;;;;;;;;;5016818;27;91730;-62
2023/08/30 07:48:11;;;;;;;12.73;9.02;;;;;;;;;;5017368;27;92620;-61
2023/08/30 07:50:37;;;;;;;17.13;9.05;;;;;;;;;;5012744;27;93436;-62
2023/08/30 07:53:04;;;;;;;16.15;9.57;;;;;;;;;;5014856;27;95013;-62
2023/08/30 07:55:30;;;;;;;16.42;10.93;;;;;;;;;;5012175;27;95546;-61
2023/08/30 07:57:56;;;;;;;17.95;10.23;;;;;;;;;;5012109;27;93747;-59
2023/08/30 08:00:23;;;;;;;15.98;10.35;;;;;;;;;;5012010;27;92456;-60
2023/08/30 08:02:49;;;;;;;16.75;9.23;;;;;;;;;;5013337;27;93188;-60
2023/08/30 08:05:16;;;;;;;13.20;8.80;;;;;;;;;;5014158;27;92526;-60
2023/08/30 08:07:43;;;;;;;11.65;8.07;;;;;;;;;;5017066;27;93288;-60
2023/08/30 08:10:09;;;;;;;19.25;8.38;;;;;;;;;;5015933;27;91853;-61
2023/08/30 08:12:36;;;;;;;17.90;8.93;;;;;;;;;;5017398;27;92470;-61
2023/08/30 08:15:03;;;;;;;10.70;7.80;;;;;;;;;;5018381;27;93543;-60
2023/08/30 08:17:29;;;;;;;18.90;8.75;;;;;;;;;;5026982;27;96907;-60
2023/08/30 08:19:55;;;;;;;13.88;8.60;;;;;;;;;;5019632;27;92462;-60
2023/08/30 08:22:22;;;;;;;12.45;8.30;;;;;;;;;;5016232;27;93123;-60
2023/08/30 08:24:51;;;;;;;11.48;8.35;;;;;;;;;;5018771;27;93429;-61
2023/08/30 08:27:17;;;;;;;11.77;7.90;;;;;;;;;;5016086;27;93513;-60
2023/08/30 08:29:44;;;;;;;12.35;7.90;;;;;;;;;;5015869;27;93507;-61
2023/08/30 08:32:10;;;;;;;11.70;8.05;;;;;;;;;;5017024;27;92456;-61
2023/08/30 08:34:36;;;;;;;9.98;7.45;;;;;;;;;;5018977;27;93095;-60
2023/08/30 08:37:03;;;;;;;10.52;6.95;;;;;;;;;;5018411;27;93483;-61
2023/08/30 08:39:30;;;;;;;11.73;7.60;;;;;;;;;;5015651;27;92453;-61
2023/08/30 08:41:58;;;;;;;9.68;7.63;;;;;;;;;;5013415;27;95211;-60
2023/08/30 08:44:26;;;;;;;12.10;7.50;;;;;;;;;;5015801;27;93777;-61
2023/08/30 08:46:52;;;;;;;14.40;7.22;;;;;;;;;;5031116;27;93228;-60
2023/08/30 08:49:19;;;;;;;11.93;8.20;;;;;;;;;;5016295;27;93794;-61
2023/08/30 08:51:46;;;;;;;12.40;7.93;;;;;;;;;;5019755;27;92836;-61
2023/08/30 08:54:12;;;;;;;17.45;8.15;;;;;;;;;;5019195;27;94145;-61
2023/08/30 08:56:39;;;;;;;9.32;7.20;;;;;;;;;;5015296;27;93387;-61
2023/08/30 08:59:07;;;;;;;11.68;7.82;;;;;;;;;;5015358;27;91855;-61
2023/08/30 09:01:39;;;;;;;10.63;7.85;;;;;;;;;;5015629;27;93513;-61
2023/08/30 09:04:09;;;;;;;11.40;7.93;;;;;;;;;;5014917;27;93417;-61
2023/08/30 09:06:37;;;;;;;12.20;7.53;;;;;;;;;;5016460;27;95652;-61
2023/08/30 09:09:03;;;;;;;11.27;7.43;;;;;;;;;;5017405;27;95510;-59
2023/08/30 09:11:30;;;;;;;10.35;7.85;;;;;;;;;;5015462;27;92494;-60
2023/08/30 09:14:16;;;;;;;10.55;7.97;;;;;;;;;;5014880;27;94308;-61
2023/08/30 09:16:43;;;;;;;9.90;7.70;;;;;;;;;;5018653;27;93409;-60
2023/08/30 09:19:10;;;;;;;9.07;7.10;;;;;;;;;;5019243;27;92867;-60
2023/08/30 09:21:36;;;;;;;11.55;8.10;;;;;;;;;;5014473;27;93230;-59
2023/08/30 09:24:04;;;;;;;10.73;7.75;;;;;;;;;;5019016;27;92809;-60
2023/08/30 09:26:31;;;;;;;10.38;7.82;;;;;;;;;;5015363;27;92451;-60
2023/08/30 09:29:03;;;;;;;8.98;7.78;;;;;;;;;;5022499;27;93335;-60
2023/08/30 09:31:32;;;;;;;9.77;6.60;;;;;;;;;;5019859;27;95846;-59
2023/08/30 09:34:01;;;;;;;15.68;7.90;;;;;;;;;;5014633;27;95490;-59
2023/08/30 09:36:42;;;;;;;12.75;8.13;;;;;;;;;;5014616;27;94488;-59
2023/08/30 09:39:10;;;;;;;8.77;7.45;;;;;;;;;;5014126;27;93019;-59
2023/08/30 09:41:37;;;;;;;9.40;7.68;;;;;;;;;;5018394;27;92335;-59
2023/08/30 09:44:10;;;;;;;14.65;8.13;;;;;;;;;;5014427;27;94404;-60
2023/08/30 09:46:44;;;;;;;10.68;7.40;;;;;;;;;;5022417;27;92497;-60
2023/08/30 09:49:18;;;;;;;9.48;7.95;;;;;;;;;;5017226;27;93666;-60
2023/08/30 09:51:46;;;;;;;10.48;7.95;;;;;;;;;;5013806;27;94480;-60
2023/08/30 09:54:17;;;;;;;10.70;8.20;;;;;;;;;;5017062;27;92664;-60
2023/08/30 09:57:04;;;;;;;12.13;7.78;;;;;;;;;;5012107;27;97914;-60
2023/08/30 09:59:31;;;;;;;10.48;8.05;;;;;;;;;;5027372;27;93515;-59
2023/08/30 10:01:57;;;;;;;10.05;7.97;;;;;;;;;;5014647;27;93133;-59
2023/08/30 10:04:24;;;;;;;8.95;8.05;;;;;;;;;;5018321;27;93388;-59
2023/08/30 10:06:51;;;;;;;11.65;8.13;;;;;;;;;;5016245;27;92615;-60
2023/08/30 10:09:18;;;;;;;11.00;8.75;;;;;;;;;;5013119;27;94144;-60
2023/08/30 10:11:46;;;;;;;9.23;8.32;;;;;;;;;;5013115;27;93512;-60
2023/08/30 10:14:13;;;;;;;10.98;9.18;;;;;;;;;;5017401;27;92033;-60
2023/08/30 10:16:43;;;;;;;9.10;8.20;;;;;;;;;;5014459;27;93448;-61
2023/08/30 10:19:30;;;;;;;16.60;8.98;;;;;;;;;;5013685;27;92548;-61
2023/08/30 10:22:01;;;;;;;10.70;8.27;;;;;;;;;;5012942;27;95156;-60
2023/08/30 10:24:28;;;;;;;10.00;8.93;;;;;;;;;;5013502;27;94425;-60
2023/08/30 10:27:03;;;;;;;11.02;8.90;;;;;;;;;;5013965;27;92421;-61
2023/08/30 10:29:31;;;;;;;10.45;8.48;;;;;;;;;;5014325;27;93221;-60
2023/08/30 10:32:01;;;;;;;14.63;10.32;;;;;;;;;;5013327;27;94706;-61
2023/08/30 10:34:31;;;;;;;10.02;8.57;;;;;;;;;;5013819;27;92325;-60
2023/08/30 10:36:59;;;;;;;7.77;6.97;;;;;;;;;;5017639;27;93135;-61
2023/08/30 10:39:32;;;;;;;10.43;6.57;;;;;;;;;;5014200;27;91792;-61
2023/08/30 10:41:59;;;;;;;9.80;6.40;;;;;;;;;;5014017;27;93445;-61
2023/08/30 10:44:25;;;;;;;6.32;5.68;;;;;;;;;;5013609;27;93619;-61
2023/08/30 10:46:52;;;;;;;10.02;6.28;;;;;;;;;;5023820;27;94982;-60
2023/08/30 10:49:19;;;;;;;5.65;4.75;;;;;;;;;;5012301;27;95689;-60
2023/08/30 10:51:53;;;;;;;8.57;4.57;;;;;;;;;;5012870;27;93396;-60
2023/08/30 10:54:21;;;;;;;6.28;4.60;;;;;;;;;;5013687;27;92667;-60
2023/08/30 10:57:01;;;;;;;6.55;4.15;;;;;;;;;;5012909;27;93090;-60
2023/08/30 10:59:29;;;;;;;10.02;4.38;;;;;;;;;;5020778;27;94443;-60
2023/08/30 11:01:55;;;;;;;6.35;3.80;;;;;;;;;;5013757;27;92440;-60
2023/08/30 11:04:22;;;;;;;16.85;3.63;;;;;;;;;;5013382;27;92697;-60
2023/08/30 11:06:49;;;;;;;9.23;3.13;;;;;;;;;;5018755;27;92681;-59
2023/08/30 11:09:18;;;;;;;5.53;3.10;;;;;;;;;;5014350;27;93094;-60
2023/08/30 11:11:45;;;;;;;7.82;2.92;;;;;;;;;;5011985;27;95835;-60
2023/08/30 11:14:12;;;;;;;5.15;2.42;;;;;;;;;;5012497;27;92756;-60
2023/08/30 11:16:39;;;;;;;6.57;2.72;;;;;;;;;;5030246;27;93073;-60
2023/08/30 11:19:07;;;;;;;5.55;2.65;;;;;;;;;;5013166;27;93408;-60
2023/08/30 11:21:34;;;;;;;9.95;3.00;;;;;;;;;;5016120;27;92419;-59
2023/08/30 11:24:01;;;;;;;13.27;3.00;;;;;;;;;;5013203;27;93481;-60
2023/08/30 11:26:27;;;;;;;6.47;2.53;;;;;;;;;;5012248;27;92615;-60
2023/08/30 11:28:53;;;;;;;14.75;2.95;;;;;;;;;;5017212;27;94718;-60
2023/08/30 11:31:27;;;;;;;8.40;2.88;;;;;;;;;;5013099;27;93439;-61
2023/08/30 11:33:55;;;;;;;6.03;2.33;;;;;;;;;;5012854;27;92595;-60
2023/08/30 11:36:23;;;;;;;5.85;2.30;;;;;;;;;;5011458;27;94934;-60
2023/08/30 11:38:50;;;;;;;6.57;2.65;;;;;;;;;;5012048;27;93459;-60
2023/08/30 11:41:16;;;;;;;9.07;2.70;;;;;;;;;;5016903;27;92482;-60
2023/08/30 11:43:43;;;;;;;14.05;3.25;;;;;;;;;;5014811;27;93181;-60
2023/08/30 11:46:09;;;;;;;10.75;2.22;;;;;;;;;;5013757;27;92397;-60
2023/08/30 11:48:36;;;;;;;4.95;2.25;;;;;;;;;;5013001;27;93188;-60
2023/08/30 11:51:03;;;;;;;11.60;2.63;;;;;;;;;;5012932;27;94569;-60
2023/08/30 11:53:29;;;;;;;6.45;2.75;;;;;;;;;;5012830;27;91847;-60
2023/08/30 11:55:56;;;;;;;10.45;3.08;;;;;;;;;;5012953;27;92785;-60
2023/08/30 11:58:22;;;;;;;8.57;3.35;;;;;;;;;;5012351;27;93411;-60
2023/08/30 12:00:50;;;;;;;10.10;2.88;;;;;;;;;;5011227;27;94792;-60
2023/08/30 12:03:16;;;;;;;10.15;2.80;;;;;;;;;;5015746;27;95573;-60
2023/08/30 12:05:50;;;;;;;10.80;3.05;;;;;;;;;;5015688;27;92671;-61
2023/08/30 12:08:20;;;;;;;15.57;3.17;;;;;;;;;;5012747;27;93144;-60
2023/08/30 12:10:47;;;;;;;11.48;3.10;;;;;;;;;;5017109;27;93832;-60
2023/08/30 12:13:26;;;;;;;10.48;3.13;;;;;;;;;;5012094;27;92642;-60
2023/08/30 12:15:53;;;;;;;10.75;2.80;;;;;;;;;;5021049;27;94153;-60
2023/08/30 12:18:29;;;;;;;12.88;3.17;;;;;;;;;;5013887;27;93852;-60
2023/08/30 12:20:58;;;;;;;13.57;2.65;;;;;;;;;;5012272;27;93190;-60
2023/08/30 12:23:25;;;;;;;11.15;2.60;;;;;;;;;;5012005;27;94321;-60
2023/08/30 12:25:58;;;;;;;9.48;2.88;;;;;;;;;;5013984;27;95862;-60
2023/08/30 12:28:28;;;;;;;13.00;2.42;;;;;;;;;;5012330;27;95343;-60
2023/08/30 12:30:55;;;;;;;11.50;2.92;;;;;;;;;;5012229;27;93430;-60
2023/08/30 12:33:21;;;;;;;9.20;2.53;;;;;;;;;;5011553;27;92611;-60
2023/08/30 12:35:48;;;;;;;10.38;2.42;;;;;;;;;;5012999;27;93037;-60
2023/08/30 12:38:17;;;;;;;13.15;2.97;;;;;;;;;;5019858;27;93340;-60
2023/08/30 12:40:47;;;;;;;11.07;2.80;;;;;;;;;;5012219;27;92584;-60
2023/08/30 12:43:14;;;;;;;8.43;2.38;;;;;;;;;;5012853;27;94156;-60
2023/08/30 12:45:41;;;;;;;12.75;2.92;;;;;;;;;;5011734;27;93416;-60
2023/08/30 12:48:07;;;;;;;9.27;2.50;;;;;;;;;;5016054;27;92480;-60
2023/08/30 12:50:35;;;;;;;9.30;2.00;;;;;;;;;;5010691;27;99780;-59
2023/08/30 12:53:02;;;;;;;10.60;2.90;;;;;;;;;;5015976;27;92561;-60
2023/08/30 12:55:28;;;;;;;12.55;2.75;;;;;;;;;;5018066;27;93090;-60
2023/08/30 12:57:55;;;;;;;10.18;2.50;;;;;;;;;;5015152;27;94017;-60
2023/08/30 13:00:21;;;;;;;6.68;1.83;;;;;;;;;;5019090;27;92598;-60
2023/08/30 13:02:48;;;;;;;7.20;2.10;;;;;;;;;;5014478;27;93412;-60
2023/08/30 13:05:14;;;;;;;7.30;2.17;;;;;;;;;;5020075;27;94288;-60
2023/08/30 13:07:41;;;;;;;9.60;2.17;;;;;;;;;;5022958;27;91654;-60
2023/08/30 13:10:07;;;;;;;8.57;2.35;;;;;;;;;;5018136;27;92550;-58
2023/08/30 13:12:33;;;;;;;7.80;2.40;;;;;;;;;;5023698;27;92393;-58
2023/08/30 13:15:01;;;;;;;7.78;2.58;;;;;;;;;;5013535;27;95121;-58
2023/08/30 13:17:27;;;;;;;7.82;2.63;;;;;;;;;;5018730;27;93473;-58
2023/08/30 13:19:53;;;;;;;6.63;2.03;;;;;;;;;;5016060;27;92489;-58
2023/08/30 13:22:20;;;;;;;11.30;2.63;;;;;;;;;;5014853;27;93143;-59
2023/08/30 13:24:47;;;;;;;7.15;2.30;;;;;;;;;;5014686;27;92494;-59
2023/08/30 13:27:13;;;;;;;5.88;2.28;;;;;;;;;;5018628;27;92481;-58
2023/08/30 13:29:40;;;;;;;8.05;2.20;;;;;;;;;;5015048;27;93150;-58
2023/08/30 13:32:06;;;;;;;7.38;1.98;;;;;;;;;;5018302;27;92978;-59
2023/08/30 13:34:32;;;;;;;10.57;2.40;;;;;;;;;;5014469;27;92653;-59
2023/08/30 13:36:59;;;;;;;8.60;2.83;;;;;;;;;;5013950;27;93226;-59
2023/08/30 13:39:25;;;;;;;12.27;2.80;;;;;;;;;;5013590;27;94714;-59
2023/08/30 13:41:52;;;;;;;8.43;2.70;;;;;;;;;;5013973;27;94339;-59
2023/08/30 13:44:18;;;;;;;6.35;2.08;;;;;;;;;;5018200;27;93431;-59
2023/08/30 13:46:47;;;;;;;6.70;2.17;;;;;;;;;;5016318;27;92603;-59
2023/08/30 13:49:14;;;;;;;9.85;2.58;;;;;;;;;;5018235;27;92696;-59
2023/08/30 13:51:41;;;;;;;8.23;2.47;;;;;;;;;;5015091;27;93484;-59
2023/08/30 13:54:07;;;;;;;8.57;2.67;;;;;;;;;;5022472;27;92438;-59
2023/08/30 13:56:35;;;;;;;10.43;2.53;;;;;;;;;;5018802;27;92690;-59
2023/08/30 13:59:02;;;;;;;12.25;2.83;;;;;;;;;;5014449;27;93097;-59
2023/08/30 14:01:28;;;;;;;8.10;1.95;;;;;;;;;;5014241;27;93395;-59
2023/08/30 14:03:54;;;;;;;7.40;2.55;;;;;;;;;;5011769;27;96034;-60
2023/08/30 14:06:21;;;;;;;8.13;2.47;;;;;;;;;;5022973;27;92814;-60
2023/08/30 14:08:47;;;;;;;8.38;1.98;;;;;;;;;;5018520;27;93551;-60
2023/08/30 14:11:14;;;;;;;5.78;2.00;;;;;;;;;;5013684;27;93399;-60
2023/08/30 14:13:41;;;;;;;6.18;1.80;;;;;;;;;;5017294;27;92566;-60
2023/08/30 14:16:08;;;;;;;5.22;1.52;;;;;;;;;;5019553;27;93413;-60
2023/08/30 14:18:35;;;;;;;5.53;2.00;;;;;;;;;;5014376;27;92550;-60
2023/08/30 14:21:02;;;;;;;2.85;1.30;;;;;;;;;;5013758;27;93150;-60
2023/08/30 14:23:29;;;;;;;6.85;1.83;;;;;;;;;;5022307;27;94439;-60
2023/08/30 14:25:59;;;;;;;6.60;1.60;;;;;;;;;;5014220;27;92894;-60
2023/08/30 14:28:25;;;;;;;6.90;1.60;;;;;;;;;;5012364;27;94782;-59
2023/08/30 14:30:52;;;;;;;4.70;1.77;;;;;;;;;;5013531;27;92797;-60
2023/08/30 14:33:18;;;;;;;6.15;1.60;;;;;;;;;;5014968;27;92866;-60